Portada
METAR-TAF:

METAR-TAF

Aeropuertos :

Aeropuerto de Aarhus

Aarhus, Dinamarca

latitud: 56-18N, longitud: 010-37E, altitud: 23 m

Observación

El informe se hizo hace 21 minutos, a las 23:20 UTC
Viento 12 kt del oeste
Temperatura 5°C
Humedad 87%
Presión 1019 hPa
Visibilidad: 3400 m
chaparrones de lluvia, neblina

METAR: EKAH 312320Z AUTO 27012KT 3400NDV -SHRA BR BKN013/// 05/03 Q1019

Hora: 01:41 (23:41 UTC)


TAF: falta

Observaciones y pronósticos meteorológicos de más de 4000 aeropuertos (mensajes METAR y TAF).

Los puntos amarillos y rojos representan las estaciones disponibles.

Ponga el ratón en el punto deseado para ver el nombre de la estación.

Haga clic para ver las observaciones y los pronósticos meteorológicos.

Para cambiar el mapa : haga clic en los botones verdes con una cruz de color negro para hacer un zoom, en el botón verde con un guión para alejar o en las flechas verdes para mapas adyacentes.


METAR-TAF: